Time;durP1;ratioP1;P1;durP2;ratioP2;P2;SDS_P1;SDS_P2;PMS_P1;PMS_P2;Temp;Humidity;BMP_temperature;BMP_pressure;BME280_temperature;BME280_humidity;BME280_pressure;Samples;Min_cycle;Max_cycle;Signal;HPM_P1;HPM_P2
2022/06/29 05:32:23;;;;;;;9.68;8.68;;;;;;;25.73;73.15;100227.76;1725741;82;21055;-39
2022/06/29 05:34:50;;;;;;;13.48;9.03;;;;;;;25.91;69.42;100225.75;1715701;82;21786;-46
2022/06/29 05:37:17;;;;;;;15.15;10.13;;;;;;;25.99;68.19;100225.64;1732226;82;21517;-39
2022/06/29 05:39:44;;;;;;;13.03;9.10;;;;;;;26.11;68.11;100217.28;1711047;81;21021;-39
2022/06/29 05:42:13;;;;;;;14.50;8.95;;;;;;;26.21;67.68;100221.09;1715946;82;21860;-47
2022/06/29 05:44:41;;;;;;;14.65;9.03;;;;;;;26.33;66.46;100222.09;1708674;82;21001;-47
2022/06/29 05:47:08;;;;;;;14.70;9.53;;;;;;;26.42;66.12;100217.47;1722859;82;21608;-47
2022/06/29 05:49:38;;;;;;;11.33;9.48;;;;;;;26.51;65.95;100211.50;1720791;83;21010;-48
2022/06/29 05:52:06;;;;;;;15.95;10.10;;;;;;;26.63;66.15;100211.15;1718860;82;21021;-48
2022/06/29 05:54:35;;;;;;;13.58;10.48;;;;;;;26.73;65.90;100210.02;1723025;81;20970;-48
2022/06/29 05:57:02;;;;;;;15.10;9.15;;;;;;;26.81;65.82;100213.54;1737192;81;21435;-48
2022/06/29 05:59:29;;;;;;;14.63;9.40;;;;;;;26.90;65.53;100212.89;1725415;81;20999;-48
2022/06/29 06:01:55;;;;;;;13.65;9.80;;;;;;;26.96;64.30;100211.13;1730848;81;21560;-48
2022/06/29 06:04:22;;;;;;;18.23;9.93;;;;;;;27.01;63.95;100211.17;1701649;82;21434;-42
2022/06/29 06:06:48;;;;;;;10.72;8.85;;;;;;;27.07;63.19;100212.61;1721964;81;21023;-41
2022/06/29 06:09:17;;;;;;;9.88;8.88;;;;;;;27.09;63.21;100215.20;1729231;82;21570;-41
2022/06/29 06:11:44;;;;;;;11.08;7.45;;;;;;;27.15;63.15;100213.44;1732161;82;21544;-50
2022/06/29 06:14:11;;;;;;;8.48;7.55;;;;;;;27.21;62.02;100212.52;1725842;82;21009;-49
2022/06/29 06:16:37;;;;;;;11.43;8.25;;;;;;;27.28;60.89;100215.62;1724008;82;20997;-42
2022/06/29 06:19:04;;;;;;;9.93;7.95;;;;;;;27.34;60.54;100215.19;1722136;81;21016;-42
2022/06/29 06:21:31;;;;;;;12.78;7.72;;;;;;;27.44;61.06;100214.91;1712263;82;21021;-41
2022/06/29 06:23:57;;;;;;;8.20;7.35;;;;;;;27.54;60.42;100213.75;1733792;82;20990;-42
2022/06/29 06:26:24;;;;;;;9.75;7.62;;;;;;;27.62;59.77;100200.64;1707453;82;21536;-41
2022/06/29 06:28:52;;;;;;;9.28;7.17;;;;;;;27.72;58.92;100210.28;1692729;83;21041;-42
2022/06/29 06:31:18;;;;;;;10.40;8.00;;;;;;;27.80;58.52;100211.91;1731374;82;21011;-43
2022/06/29 06:33:45;;;;;;;14.23;8.53;;;;;;;27.89;58.80;100213.05;1721097;82;21444;-42
2022/06/29 06:36:12;;;;;;;8.98;7.55;;;;;;;27.95;57.56;100207.23;1720677;82;21050;-41
2022/06/29 06:38:38;;;;;;;10.72;7.62;;;;;;;28.01;56.60;100202.28;1734809;82;21077;-41
2022/06/29 06:41:24;;;;;;;11.70;6.85;;;;;;;28.05;56.80;100194.83;1717044;81;21136;-50
2022/06/29 06:43:56;;;;;;;12.15;7.37;;;;;;;28.13;56.73;100197.82;1729907;81;21140;-41
2022/06/29 06:46:23;;;;;;;11.28;6.85;;;;;;;28.24;56.03;100195.19;1731871;82;21009;-42
2022/06/29 06:48:51;;;;;;;9.60;6.95;;;;;;;28.33;55.24;100195.00;1734771;82;21653;-50
2022/06/29 06:51:20;;;;;;;11.68;7.47;;;;;;;28.41;54.66;100191.72;1733468;82;21020;-50
2022/06/29 06:53:47;;;;;;;12.50;7.47;;;;;;;28.45;54.08;100187.34;1723249;82;21044;-43
2022/06/29 06:56:15;;;;;;;7.78;6.55;;;;;;;28.52;53.69;100188.58;1730467;82;21029;-50
2022/06/29 06:58:42;;;;;;;14.75;7.12;;;;;;;28.58;53.09;100192.64;1729600;82;21002;-50
2022/06/29 07:01:09;;;;;;;8.88;6.70;;;;;;;28.63;52.92;100189.97;1731398;82;21078;-43
2022/06/29 07:03:36;;;;;;;10.55;6.65;;;;;;;28.69;53.04;100187.78;1713984;82;21093;-50
2022/06/29 07:06:08;;;;;;;11.97;7.28;;;;;;;28.76;53.08;100191.70;1724681;82;21556;-49
2022/06/29 07:08:37;;;;;;;7.28;6.58;;;;;;;28.86;52.68;100190.88;1733038;82;21704;-41
2022/06/29 07:11:05;;;;;;;9.23;6.87;;;;;;;28.94;52.41;100185.44;1732609;82;21068;-50
2022/06/29 07:13:39;;;;;;;10.90;6.97;;;;;;;29.01;52.35;100189.36;1710505;82;21544;-50
2022/06/29 07:16:06;;;;;;;8.18;7.10;;;;;;;29.10;51.92;100185.44;1711001;82;21057;-50
2022/06/29 07:18:33;;;;;;;8.78;6.55;;;;;;;29.17;51.54;100187.18;1724494;81;21058;-42
2022/06/29 07:21:00;;;;;;;7.58;6.78;;;;;;;29.22;51.54;100183.61;1720012;82;21612;-42
2022/06/29 07:23:30;;;;;;;7.83;7.10;;;;;;;29.30;52.17;100192.45;1723656;82;21145;-42
2022/06/29 07:26:04;;;;;;;8.40;6.60;;;;;;;29.34;51.26;100192.08;1726756;82;21044;-49
2022/06/29 07:28:35;;;;;;;7.62;6.83;;;;;;;29.40;51.18;100188.90;1704870;80;20995;-51
2022/06/29 07:31:15;;;;;;;8.98;7.08;;;;;;;29.46;50.13;100196.98;1719101;81;21061;-43
2022/06/29 07:33:47;;;;;;;10.30;6.35;;;;;;;29.45;50.00;100201.12;1730717;82;21013;-41
2022/06/29 07:36:29;;;;;;;10.10;6.65;;;;;;;29.47;50.03;100198.69;1711254;83;21640;-42
2022/06/29 07:39:02;;;;;;;8.40;6.60;;;;;;;29.53;49.65;100194.67;1726750;82;21096;-41
2022/06/29 07:41:29;;;;;;;9.23;6.87;;;;;;;29.60;49.38;100204.83;1719858;82;21646;-50
2022/06/29 07:43:56;;;;;;;7.12;6.20;;;;;;;29.67;49.67;100197.09;1731651;82;21013;-50
2022/06/29 07:46:23;;;;;;;9.18;6.78;;;;;;;29.73;49.19;100199.29;1728567;82;21001;-50
2022/06/29 07:48:50;;;;;;;10.20;7.42;;;;;;;29.77;48.76;100202.11;1733595;82;21544;-41
2022/06/29 07:51:17;;;;;;;10.58;5.75;;;;;;;29.84;48.29;100199.27;1721772;82;21413;-50
2022/06/29 07:53:44;;;;;;;10.10;6.40;;;;;;;29.88;47.60;100203.44;1728442;82;21021;-50
2022/06/29 07:56:11;;;;;;;8.00;6.25;;;;;;;29.92;46.62;100195.97;1728911;82;21050;-50
2022/06/29 07:58:38;;;;;;;9.05;6.70;;;;;;;29.93;46.66;100195.84;1716808;82;21118;-50
2022/06/29 08:01:05;;;;;;;7.67;6.80;;;;;;;29.94;46.78;100202.94;1721892;82;21068;-51
2022/06/29 08:03:32;;;;;;;11.15;6.90;;;;;;;29.99;47.16;100202.56;1744180;82;21521;-51
2022/06/29 08:05:59;;;;;;;8.03;6.35;;;;;;;30.03;46.70;100205.35;1733131;82;21052;-51
2022/06/29 08:08:27;;;;;;;6.83;6.12;;;;;;;30.08;47.24;100204.98;1740140;82;21550;-51
2022/06/29 08:10:53;;;;;;;7.60;6.30;;;;;;;30.13;45.72;100201.45;1741495;82;21515;-51
2022/06/29 08:13:20;;;;;;;9.98;5.80;;;;;;;30.17;45.82;100197.02;1741692;82;21027;-51
2022/06/29 08:15:47;;;;;;;9.08;6.72;;;;;;;30.22;45.10;100193.09;1740036;82;21074;-51
2022/06/29 08:18:14;;;;;;;7.53;6.00;;;;;;;30.27;45.36;100192.19;1727439;82;21504;-51
2022/06/29 08:20:41;;;;;;;7.75;5.70;;;;;;;30.32;44.61;100188.61;1727830;82;21044;-51
2022/06/29 08:23:09;;;;;;;9.38;6.03;;;;;;;30.37;45.19;100195.83;1725924;82;21049;-42
2022/06/29 08:25:36;;;;;;;8.30;5.40;;;;;;;30.45;44.88;100192.86;1717388;83;21041;-42
2022/06/29 08:28:06;;;;;;;8.53;6.47;;;;;;;30.50;42.62;100197.88;1735961;82;21671;-51
2022/06/29 08:30:38;;;;;;;13.43;5.70;;;;;;;30.53;42.98;100185.95;1643562;82;21748;-50
2022/06/29 08:33:05;;;;;;;8.80;6.17;;;;;;;30.55;43.68;100186.17;1743415;81;21095;-42
2022/06/29 08:35:34;;;;;;;7.53;6.05;;;;;;;30.62;43.52;100185.19;1744681;81;20997;-42
2022/06/29 08:38:01;;;;;;;8.78;5.92;;;;;;;30.68;42.27;100183.30;1720211;82;21123;-42
2022/06/29 08:40:31;;;;;;;12.25;6.17;;;;;;;30.72;42.37;100184.77;1730233;81;21461;-42
2022/06/29 08:42:57;;;;;;;6.22;5.70;;;;;;;30.77;41.69;100184.38;1727875;82;21005;-51
2022/06/29 08:45:24;;;;;;;9.63;5.45;;;;;;;30.82;40.41;100183.48;1710425;82;21658;-51
2022/06/29 08:47:52;;;;;;;8.15;5.58;;;;;;;30.83;40.34;100174.39;1737915;82;21010;-51
2022/06/29 08:50:19;;;;;;;12.85;5.37;;;;;;;30.88;40.76;100177.55;1737198;82;21571;-51
2022/06/29 08:52:46;;;;;;;13.20;6.08;;;;;;;30.94;41.42;100179.23;1736624;82;21008;-50
2022/06/29 08:55:12;;;;;;;6.35;5.00;;;;;;;30.99;40.88;100170.73;1737008;82;21041;-51
2022/06/29 08:57:41;;;;;;;8.40;5.33;;;;;;;31.04;39.36;100175.23;1729516;82;21064;-50
2022/06/29 09:00:09;;;;;;;8.60;5.45;;;;;;;31.07;39.41;100173.60;1728131;82;21112;-51
2022/06/29 09:02:36;;;;;;;9.60;5.42;;;;;;;31.09;38.31;100175.70;1741637;82;21998;-50
2022/06/29 09:05:04;;;;;;;7.28;5.55;;;;;;;31.10;38.39;100169.30;1733769;80;20974;-51
2022/06/29 09:07:31;;;;;;;6.67;5.03;;;;;;;31.14;38.59;100165.34;1737740;80;21027;-51
2022/06/29 09:10:07;;;;;;;6.97;5.70;;;;;;;31.18;38.42;100169.47;1727782;82;20985;-51
2022/06/29 09:12:35;;;;;;;8.28;5.47;;;;;;;31.22;38.74;100172.27;1730850;82;21001;-50
2022/06/29 09:15:04;;;;;;;5.85;4.80;;;;;;;31.31;38.29;100172.46;1729574;82;21040;-42
2022/06/29 09:17:32;;;;;;;11.08;5.33;;;;;;;31.37;38.10;100165.16;1725961;82;21513;-51
2022/06/29 09:20:06;;;;;;;10.78;5.17;;;;;;;31.42;38.35;100173.72;1723423;82;20950;-49
2022/06/29 09:22:33;;;;;;;6.62;5.72;;;;;;;31.50;38.26;100172.55;1735228;82;21092;-49
2022/06/29 09:24:59;;;;;;;6.42;5.35;;;;;;;31.58;38.63;100169.16;1719266;82;21049;-49
2022/06/29 09:27:26;;;;;;;9.00;6.03;;;;;;;31.62;38.48;100169.25;1732575;82;21009;-51
2022/06/29 09:29:54;;;;;;;9.15;6.08;;;;;;;31.63;38.00;100166.90;1744771;82;21002;-51
2022/06/29 09:32:25;;;;;;;5.67;5.17;;;;;;;31.63;38.23;100167.75;1736447;82;21624;-43
2022/06/29 09:34:51;;;;;;;7.30;5.53;;;;;;;31.67;37.04;100164.28;1710017;82;21002;-51
2022/06/29 09:37:20;;;;;;;5.62;5.20;;;;;;;31.69;36.63;100164.49;1714069;82;21000;-51
2022/06/29 09:39:52;;;;;;;5.45;4.95;;;;;;;31.71;36.89;100165.70;1724756;82;21509;-43
2022/06/29 09:42:21;;;;;;;6.58;5.25;;;;;;;31.75;37.51;100160.38;1724801;82;20978;-51
2022/06/29 09:44:49;;;;;;;9.05;5.70;;;;;;;31.76;37.89;100151.27;1671442;86;21001;-43
2022/06/29 09:47:19;;;;;;;6.90;4.92;;;;;;;31.80;38.06;100157.30;1725801;82;21081;-42
2022/06/29 09:49:59;;;;;;;6.30;4.70;;;;;;;31.82;37.12;100154.80;1737093;82;21082;-48
2022/06/29 09:52:25;;;;;;;9.55;5.25;;;;;;;31.81;37.00;100158.50;1714362;82;21466;-49
2022/06/29 09:54:58;;;;;;;6.87;5.05;;;;;;;31.78;36.65;100160.11;1730829;82;21885;-41
2022/06/29 09:57:30;;;;;;;5.42;4.97;;;;;;;31.75;36.48;100157.67;1731033;82;21049;-40
2022/06/29 10:02:53;;;;;;;6.80;4.80;;;;;;;31.75;36.32;100155.82;1718615;82;21073;-40
2022/06/29 10:05:22;;;;;;;6.42;5.08;;;;;;;31.76;36.30;100152.12;1722743;82;21513;-40
2022/06/29 10:07:54;;;;;;;5.05;4.60;;;;;;;31.83;37.32;100157.00;1713944;81;21491;-49
2022/06/29 10:10:24;;;;;;;5.20;4.80;;;;;;;31.82;37.12;100153.94;1720327;82;21569;-49
2022/06/29 10:16:42;;;;;;;6.22;4.92;;;;;;;31.77;36.45;100148.41;1731279;82;21009;-40
2022/06/29 10:19:40;;;;;;;8.60;5.10;;;;;;;31.74;36.97;100147.36;1683296;85;21427;-41
2022/06/29 10:22:07;;;;;;;5.05;4.60;;;;;;;31.76;37.23;100153.97;1682739;84;21583;-49
2022/06/29 10:24:37;;;;;;;6.55;4.90;;;;;;;31.79;36.91;100160.47;1680600;85;21541;-49
2022/06/29 10:27:06;;;;;;;5.15;4.70;;;;;;;31.79;36.99;100152.35;1683704;84;21443;-49
2022/06/29 10:29:33;;;;;;;5.17;4.70;;;;;;;31.82;36.89;100148.53;1683516;84;20997;-43
2022/06/29 10:32:10;;;;;;;6.20;4.87;;;;;;;31.90;36.56;100141.95;1682802;84;21068;-49
2022/06/29 10:35:10;;;;;;;5.97;4.60;;;;;;;31.99;36.65;100150.05;1685539;85;21001;-42
2022/06/29 10:37:15;;;;;;;5.37;4.95;;;;;;;32.10;36.29;100134.18;1627958;87;21211;-41
2022/06/29 11:20:22;;;;;;;6.70;4.83;;;;;;;33.52;31.97;100134.19;1719938;82;21013;-42
2022/06/29 11:22:50;;;;;;;5.22;4.40;;;;;;;33.61;31.41;100124.27;1712823;82;21086;-41
2022/06/29 11:25:17;;;;;;;5.17;4.42;;;;;;;33.67;31.30;100126.38;1712628;84;21075;-49
2022/06/29 11:27:44;;;;;;;7.05;4.80;;;;;;;33.67;31.58;100128.23;1712620;82;21071;-43
2022/06/29 11:30:16;;;;;;;6.42;5.10;;;;;;;33.59;31.34;100126.30;1712851;84;21055;-41
2022/06/29 11:32:45;;;;;;;5.20;4.72;;;;;;;33.48;31.51;100129.22;1734434;82;21128;-49
2022/06/29 11:35:18;;;;;;;6.92;4.45;;;;;;;33.33;31.97;100126.11;1738854;82;21622;-41
2022/06/29 11:37:50;;;;;;;8.73;4.60;;;;;;;33.22;32.50;100119.53;1739013;82;21659;-51
2022/06/29 11:40:34;;;;;;;5.67;5.15;;;;;;;33.13;32.56;100117.23;1738973;82;21064;-41
2022/06/29 11:43:13;;;;;;;6.33;5.30;;;;;;;33.02;32.95;100114.20;1735746;82;21614;-41
2022/06/29 11:45:45;;;;;;;4.90;4.42;;;;;;;32.91;33.31;100115.73;1732271;82;21003;-41
2022/06/29 11:48:16;;;;;;;;;;;;;;;32.84;33.33;100117.30;1735373;81;21680;-50
2022/06/29 11:50:53;;;;;;;5.08;4.65;;;;;;;32.78;33.15;100106.56;1735128;83;20419;-41
2022/06/29 11:53:41;;;;;;;5.85;4.78;;;;;;;32.73;33.38;100104.79;1734868;83;21603;-49
2022/06/29 11:56:12;;;;;;;7.95;4.40;;;;;;;32.68;33.79;100092.69;1726559;82;21055;-50
2022/06/29 11:58:50;;;;;;;7.00;4.97;;;;;;;32.64;33.47;100085.84;1726366;82;21546;-42
2022/06/29 12:01:22;;;;;;;5.67;4.80;;;;;;;32.61;33.59;100085.66;1726631;82;21036;-41
2022/06/29 12:03:50;;;;;;;5.30;4.83;;;;;;;32.60;34.42;100088.02;1732870;82;21048;-42
2022/06/29 12:06:17;;;;;;;6.97;5.15;;;;;;;32.60;34.11;100088.02;1733658;82;21038;-50
2022/06/29 12:08:45;;;;;;;6.92;5.03;;;;;;;32.56;33.99;100072.55;1735186;82;21016;-41
2022/06/29 12:11:12;;;;;;;7.40;4.83;;;;;;;32.53;33.78;100070.16;1736045;82;21102;-41
2022/06/29 12:13:39;;;;;;;6.70;5.30;;;;;;;32.51;34.06;100070.78;1739152;82;21109;-42
2022/06/29 12:16:07;;;;;;;6.40;4.87;;;;;;;32.45;34.08;100072.72;1738440;82;21576;-41
2022/06/29 12:18:34;;;;;;;5.53;5.03;;;;;;;32.42;34.13;100065.41;1761854;81;21065;-41
2022/06/29 12:21:02;;;;;;;5.65;4.87;;;;;;;32.41;34.50;100060.97;1761895;80;21045;-41
2022/06/29 12:23:31;;;;;;;8.98;4.85;;;;;;;32.42;34.22;100057.29;1732385;82;21103;-49
2022/06/29 12:25:58;;;;;;;5.67;5.17;;;;;;;32.48;34.65;100056.70;1725734;82;21044;-41
2022/06/29 12:28:25;;;;;;;8.50;5.00;;;;;;;32.53;34.65;100053.06;1727346;82;21021;-44
2022/06/29 12:30:52;;;;;;;8.63;4.70;;;;;;;32.55;34.25;100050.55;1720115;82;21014;-49
2022/06/29 12:33:19;;;;;;;5.75;4.72;;;;;;;32.60;34.48;100055.53;1691593;83;21928;-50
2022/06/29 12:35:46;;;;;;;5.75;5.22;;;;;;;32.61;34.45;100059.08;1686818;85;21021;-50
2022/06/29 12:38:13;;;;;;;5.72;4.90;;;;;;;32.54;34.14;100056.11;1716733;83;21053;-50
2022/06/29 12:40:40;;;;;;;5.05;4.65;;;;;;;32.45;34.28;100053.77;1717748;83;22082;-49
2022/06/29 12:43:07;;;;;;;5.12;4.72;;;;;;;32.44;34.30;100046.66;1717383;83;21119;-49
